createdAt,value
2023-02-03T00:00:23.457Z,6.65
2023-02-03T00:03:46.284Z,7.55
2023-02-03T00:07:08.733Z,7.95
2023-02-03T00:10:31.564Z,4.53
2023-02-03T00:13:55.321Z,7.82
2023-02-03T00:17:17.781Z,6.72
2023-02-03T00:20:42.671Z,6.72
2023-02-03T00:24:05.171Z,3.50
2023-02-03T00:27:27.408Z,3.40
2023-02-03T00:30:54.100Z,7.25
2023-02-03T00:34:16.715Z,5.10
2023-02-03T00:37:39.021Z,6.33
2023-02-03T00:41:02.504Z,5.82
2023-02-03T00:44:27.679Z,4.18
2023-02-03T00:47:53.651Z,3.75
2023-02-03T00:51:16.346Z,4.43
2023-02-03T00:54:38.837Z,4.68
2023-02-03T00:58:01.338Z,3.72
2023-02-03T01:01:23.873Z,5.12
2023-02-03T01:04:48.540Z,9.50
2023-02-03T01:08:10.938Z,5.75
2023-02-03T01:11:33.876Z,4.95
2023-02-03T01:14:56.380Z,4.55
2023-02-03T01:18:21.173Z,6.03
2023-02-03T01:21:45.604Z,5.95
2023-02-03T01:25:09.548Z,5.85
2023-02-03T01:28:32.871Z,4.17
2023-02-03T01:31:55.584Z,5.10
2023-02-03T01:35:18.041Z,2.37
2023-02-03T01:38:42.451Z,4.30
2023-02-03T01:42:05.992Z,4.77
2023-02-03T01:45:28.477Z,3.55
2023-02-03T01:48:50.942Z,4.68
2023-02-03T01:52:13.289Z,3.28
2023-02-03T01:55:38.670Z,5.15
2023-02-03T01:59:01.440Z,4.15
2023-02-03T02:02:24.971Z,5.75
2023-02-03T02:05:49.661Z,3.47
2023-02-03T02:09:11.979Z,4.63
2023-02-03T02:12:38.804Z,2.75
2023-02-03T02:16:07.011Z,2.55
2023-02-03T02:19:53.867Z,3.15
2023-02-03T02:23:38.012Z,3.40
2023-02-03T02:27:10.679Z,6.97
2023-02-03T02:30:55.966Z,4.00
2023-02-03T02:34:23.865Z,7.60
2023-02-03T02:37:50.659Z,3.43
2023-02-03T02:41:17.151Z,4.72
2023-02-03T02:44:42.413Z,5.18
2023-02-03T02:48:08.343Z,7.40
2023-02-03T02:51:32.416Z,3.67
2023-02-03T02:54:56.297Z,5.07
2023-02-03T02:58:19.166Z,8.27
2023-02-03T03:01:42.371Z,7.30
2023-02-03T03:05:05.390Z,6.03
2023-02-03T03:08:31.848Z,4.32
2023-02-03T03:11:55.669Z,5.00
2023-02-03T03:15:22.294Z,5.65
2023-02-03T03:18:45.565Z,5.47
2023-02-03T03:22:09.404Z,5.93
2023-02-03T03:25:35.867Z,6.85
2023-02-03T03:29:02.228Z,10.50
2023-02-03T03:32:24.581Z,10.53
2023-02-03T03:35:49.356Z,8.52
2023-02-03T03:39:15.025Z,7.12
2023-02-03T03:46:04.281Z,5.70
2023-02-03T03:49:27.183Z,4.97
2023-02-03T03:52:49.774Z,6.60
2023-02-03T03:56:14.778Z,6.03
2023-02-03T03:59:39.400Z,4.80
2023-02-03T04:03:03.635Z,4.60
2023-02-03T04:06:26.167Z,4.80
2023-02-03T04:09:48.550Z,7.20
2023-02-03T04:13:11.759Z,5.27
2023-02-03T04:16:35.564Z,3.33
2023-02-03T04:19:58.420Z,5.62
2023-02-03T04:23:20.748Z,6.03
2023-02-03T04:26:43.224Z,6.85
2023-02-03T04:30:06.105Z,4.18
2023-02-03T04:33:30.174Z,4.80
2023-02-03T04:36:52.625Z,4.22
2023-02-03T04:40:15.138Z,7.03
2023-02-03T04:43:37.753Z,5.40
2023-02-03T04:47:00.223Z,6.45
2023-02-03T04:50:24.326Z,6.47
2023-02-03T04:53:47.327Z,5.10
2023-02-03T04:57:09.759Z,4.30
2023-02-03T05:00:32.374Z,5.65
2023-02-03T05:03:54.991Z,6.62
2023-02-03T05:07:21.284Z,8.18
2023-02-03T05:10:43.454Z,6.45
2023-02-03T05:14:06.096Z,5.80
2023-02-03T05:17:28.313Z,9.25
2023-02-03T05:20:50.795Z,7.78
2023-02-03T05:24:14.557Z,6.35
2023-02-03T05:27:39.031Z,8.00
2023-02-03T05:31:01.612Z,6.40
2023-02-03T05:34:24.460Z,6.43
2023-02-03T05:37:46.940Z,7.45
2023-02-03T05:41:29.734Z,6.87
2023-02-03T05:44:51.900Z,9.48
2023-02-03T05:48:14.210Z,4.77
2023-02-03T05:51:36.814Z,8.90
2023-02-03T05:54:59.245Z,7.60
2023-02-03T05:58:23.185Z,5.85
2023-02-03T06:01:45.640Z,5.57
2023-02-03T06:05:09.100Z,5.22
2023-02-03T06:08:31.289Z,10.25
2023-02-03T06:11:53.878Z,7.25
2023-02-03T06:15:17.968Z,6.27
2023-02-03T06:18:40.675Z,12.88
2023-02-03T06:22:03.441Z,35.83
2023-02-03T06:25:26.374Z,12.07
2023-02-03T06:28:49.051Z,15.53
2023-02-03T06:32:13.042Z,17.05
2023-02-03T06:35:35.690Z,13.50
2023-02-03T06:38:59.260Z,12.48
2023-02-03T06:42:21.416Z,8.30
2023-02-03T06:45:46.066Z,14.70
2023-02-03T06:49:09.913Z,14.05
2023-02-03T06:52:32.286Z,16.35
2023-02-03T06:55:54.916Z,12.57
2023-02-03T06:59:17.555Z,14.60
2023-02-03T07:02:40.139Z,12.55
2023-02-03T07:06:04.921Z,20.55
2023-02-03T07:09:27.543Z,16.57
2023-02-03T07:12:50.866Z,15.02
2023-02-03T07:16:13.667Z,12.07
2023-02-03T07:19:36.549Z,16.70
2023-02-03T07:23:00.418Z,22.43
2023-02-03T07:26:25.287Z,28.20
2023-02-03T07:29:47.844Z,29.25
2023-02-03T07:33:10.359Z,35.60
2023-02-03T07:36:32.817Z,38.67
2023-02-03T07:39:56.665Z,33.70
2023-02-03T07:43:18.876Z,26.00
2023-02-03T07:46:44.949Z,19.83
2023-02-03T07:50:07.735Z,16.97
2023-02-03T07:53:30.116Z,15.57
2023-02-03T07:56:54.466Z,18.45
2023-02-03T08:00:18.276Z,14.05
2023-02-03T08:03:41.445Z,12.20
2023-02-03T08:07:03.831Z,15.23
2023-02-03T08:10:26.703Z,15.00
2023-02-03T08:13:51.075Z,15.70
2023-02-03T08:17:13.399Z,13.68
2023-02-03T08:20:35.679Z,14.70
2023-02-03T08:23:58.118Z,17.80
2023-02-03T08:27:21.749Z,13.40
2023-02-03T08:30:45.995Z,15.17
2023-02-03T08:34:08.344Z,13.02
2023-02-03T08:37:32.553Z,12.20
2023-02-03T08:40:54.759Z,18.60
2023-02-03T08:44:18.667Z,14.90
2023-02-03T08:47:42.250Z,12.75
2023-02-03T08:51:10.192Z,13.95
2023-02-03T08:54:32.371Z,13.05
2023-02-03T08:57:54.912Z,18.03
2023-02-03T09:01:17.470Z,20.90
2023-02-03T09:04:42.002Z,11.35
2023-02-03T09:08:04.576Z,16.60
2023-02-03T09:11:27.185Z,12.23
2023-02-03T09:14:49.649Z,3.65
2023-02-03T09:18:12.824Z,13.50
2023-02-03T09:21:43.791Z,10.18
2023-02-03T09:25:13.988Z,10.13
2023-02-03T09:28:36.011Z,3.10
2023-02-03T09:32:00.211Z,6.47
2023-02-03T09:35:22.411Z,9.80
2023-02-03T09:38:46.316Z,5.17
2023-02-03T09:42:24.178Z,10.13
2023-02-03T09:45:47.118Z,7.62
2023-02-03T09:49:14.957Z,4.70
2023-02-03T09:52:39.443Z,8.93
2023-02-03T09:56:03.468Z,14.02
2023-02-03T09:59:26.144Z,25.50
2023-02-03T10:02:55.623Z,18.40
2023-02-03T10:06:23.636Z,20.90
2023-02-03T10:09:51.561Z,16.55
2023-02-03T10:13:24.198Z,21.62
2023-02-03T10:16:53.625Z,15.48
2023-02-03T10:20:18.940Z,11.73
2023-02-03T10:23:41.991Z,16.58
2023-02-03T10:27:05.077Z,17.35
2023-02-03T10:30:29.860Z,15.93
2023-02-03T10:33:57.854Z,13.20
2023-02-03T10:37:29.216Z,13.38
2023-02-03T10:40:53.520Z,16.00
2023-02-03T10:44:15.986Z,13.27
2023-02-03T10:47:41.101Z,14.90
2023-02-03T10:51:03.374Z,19.23
2023-02-03T10:54:32.218Z,12.77
2023-02-03T10:57:54.608Z,14.45
2023-02-03T11:01:18.324Z,14.27
2023-02-03T11:04:44.918Z,16.73
2023-02-03T11:08:12.132Z,18.20
2023-02-03T11:11:37.372Z,13.85
2023-02-03T11:15:00.539Z,15.67
2023-02-03T11:18:37.837Z,12.23
2023-02-03T11:22:02.114Z,9.93
2023-02-03T11:25:29.572Z,28.45
2023-02-03T11:28:54.121Z,16.27
2023-02-03T11:32:18.609Z,16.75
2023-02-03T11:35:41.400Z,15.65
2023-02-03T11:39:22.340Z,15.70
2023-02-03T11:42:45.959Z,11.20
2023-02-03T11:46:09.791Z,11.23
2023-02-03T11:50:07.794Z,13.70
2023-02-03T11:53:51.231Z,11.45
2023-02-03T11:57:30.621Z,12.33
2023-02-03T12:00:58.169Z,9.98
2023-02-03T12:04:36.648Z,15.18
2023-02-03T12:08:05.986Z,12.10
2023-02-03T12:11:35.947Z,11.37
2023-02-03T12:15:04.279Z,8.73
2023-02-03T12:18:34.520Z,9.65
2023-02-03T12:21:59.461Z,8.38
2023-02-03T12:25:31.340Z,3.97
2023-02-03T12:28:58.016Z,8.77
2023-02-03T12:32:26.310Z,9.82
2023-02-03T12:35:50.360Z,7.18
2023-02-03T12:39:16.298Z,12.93
2023-02-03T12:42:40.839Z,9.63
2023-02-03T12:46:05.889Z,11.25
2023-02-03T12:49:34.834Z,8.32
2023-02-03T12:52:58.638Z,7.87
2023-02-03T12:56:27.173Z,8.27
2023-02-03T13:00:00.156Z,8.50
2023-02-03T13:03:26.241Z,9.90
2023-02-03T13:06:54.095Z,8.27
2023-02-03T13:10:18.940Z,10.30
2023-02-03T13:13:45.075Z,9.93
2023-02-03T13:17:09.324Z,15.48
2023-02-03T13:20:36.055Z,11.77
2023-02-03T13:24:00.030Z,4.15
2023-02-03T13:27:37.075Z,13.98
2023-02-03T13:31:18.917Z,33.05
2023-02-03T13:34:49.668Z,35.23
2023-02-03T13:38:39.335Z,18.20
2023-02-03T13:42:15.542Z,16.98
2023-02-03T13:45:40.105Z,23.95
2023-02-03T13:49:03.984Z,16.93
2023-02-03T13:52:27.607Z,17.62
2023-02-03T13:55:54.815Z,20.35
2023-02-03T13:59:33.070Z,29.15
2023-02-03T14:02:56.116Z,10.57
2023-02-03T14:07:00.966Z,17.45
2023-02-03T14:10:24.375Z,17.55
2023-02-03T14:13:47.470Z,11.60
2023-02-03T14:17:31.334Z,19.80
2023-02-03T14:21:14.395Z,23.45
2023-02-03T14:24:38.021Z,19.23
2023-02-03T14:28:00.851Z,19.27
2023-02-03T14:31:23.640Z,22.20
2023-02-03T14:34:48.158Z,11.80
2023-02-03T14:38:12.255Z,24.80
2023-02-03T14:41:43.171Z,14.77
2023-02-03T14:45:12.664Z,29.53
2023-02-03T14:48:43.995Z,35.55
2023-02-03T14:52:20.778Z,30.55
2023-02-03T14:55:49.559Z,25.95
2023-02-03T14:59:12.319Z,46.73
2023-02-03T15:02:36.289Z,22.20
2023-02-03T15:06:03.344Z,36.45
2023-02-03T15:09:32.651Z,36.92
2023-02-03T15:12:56.048Z,48.07
2023-02-03T15:16:20.591Z,36.40
2023-02-03T15:19:43.605Z,29.67
2023-02-03T15:23:19.497Z,28.62
2023-02-03T15:26:47.814Z,24.93
2023-02-03T15:30:17.387Z,31.45
2023-02-03T15:33:39.795Z,32.47
2023-02-03T15:37:03.883Z,29.02
2023-02-03T15:40:27.408Z,26.17
2023-02-03T15:43:52.089Z,24.80
2023-02-03T15:47:21.375Z,24.77
2023-02-03T15:50:44.526Z,26.73
2023-02-03T15:54:10.347Z,19.73
2023-02-03T15:57:34.675Z,18.70
2023-02-03T16:00:59.143Z,16.17
2023-02-03T16:04:22.092Z,52.00
2023-02-03T16:07:44.694Z,36.72
2023-02-03T16:11:24.504Z,41.90
2023-02-03T16:14:47.119Z,21.60
2023-02-03T16:18:14.226Z,23.48
2023-02-03T16:21:37.234Z,22.23
2023-02-03T16:25:14.491Z,29.25
2023-02-03T16:28:54.058Z,11.40
2023-02-03T16:32:36.769Z,15.82
2023-02-03T16:36:21.479Z,8.75
2023-02-03T16:40:01.644Z,15.65
2023-02-03T16:43:41.415Z,14.38
2023-02-03T16:47:21.707Z,23.17
2023-02-03T16:50:54.142Z,12.32
2023-02-03T16:54:19.352Z,26.02
2023-02-03T16:57:42.212Z,17.23
2023-02-03T17:01:05.799Z,28.55
2023-02-03T17:04:28.215Z,22.00
2023-02-03T17:07:51.396Z,14.73
2023-02-03T17:11:17.241Z,16.95
2023-02-03T17:14:42.902Z,10.17
2023-02-03T17:18:05.800Z,8.38
2023-02-03T17:21:30.647Z,12.43
2023-02-03T17:24:54.724Z,9.27
2023-02-03T17:28:20.082Z,10.20
2023-02-03T17:31:44.701Z,11.85
2023-02-03T17:35:09.195Z,6.82
2023-02-03T17:38:32.147Z,12.43
2023-02-03T17:56:28.226Z,10.60
2023-02-03T17:59:55.671Z,13.43
2023-02-03T18:03:24.157Z,11.12
2023-02-03T18:06:49.765Z,10.57
2023-02-03T18:10:14.359Z,7.30
2023-02-03T18:13:39.002Z,19.05
2023-02-03T18:17:02.431Z,10.00
2023-02-03T18:20:28.442Z,23.87
2023-02-03T18:23:54.301Z,22.17
2023-02-03T18:27:17.432Z,13.65
2023-02-03T18:30:41.061Z,12.65
2023-02-03T18:34:07.089Z,10.68
2023-02-03T18:37:32.983Z,16.87
2023-02-03T18:40:59.108Z,8.05
2023-02-03T18:44:25.991Z,12.52
2023-02-03T18:47:51.196Z,14.98
2023-02-03T18:51:17.119Z,14.77
2023-02-03T18:54:46.034Z,12.90
2023-02-03T18:58:10.669Z,6.90
2023-02-03T19:01:34.989Z,9.68
2023-02-03T19:04:59.710Z,8.03
2023-02-03T19:08:24.613Z,9.70
2023-02-03T19:11:50.418Z,7.87
2023-02-03T19:15:18.868Z,13.85
2023-02-03T19:18:44.759Z,15.40
2023-02-03T19:22:14.080Z,11.70
2023-02-03T19:25:39.509Z,9.77
2023-02-03T19:29:06.286Z,10.23
2023-02-03T19:32:33.512Z,11.50
2023-02-03T19:35:58.122Z,13.95
2023-02-03T19:39:22.991Z,14.98
2023-02-03T19:42:47.613Z,12.73
2023-02-03T19:46:16.284Z,12.27
2023-02-03T19:49:49.147Z,15.30
2023-02-03T19:53:12.877Z,14.35
2023-02-03T19:56:37.592Z,10.50
2023-02-03T20:00:05.848Z,5.90
2023-02-03T20:03:41.734Z,8.77
2023-02-03T20:07:07.317Z,2.85
2023-02-03T20:10:33.321Z,5.00
2023-02-03T20:13:59.845Z,4.80
2023-02-03T20:17:24.822Z,4.95
2023-02-03T20:20:55.961Z,6.12
2023-02-03T20:24:22.369Z,4.03
2023-02-03T20:27:47.829Z,3.80
2023-02-03T20:31:12.287Z,3.45
2023-02-03T20:34:40.806Z,2.67
2023-02-03T20:38:06.421Z,3.00
2023-02-03T20:41:31.558Z,2.40
2023-02-03T20:44:55.897Z,3.42
2023-02-03T20:48:26.641Z,4.22
2023-02-03T20:51:53.276Z,2.37
2023-02-03T20:55:20.989Z,2.20
2023-02-03T20:58:47.193Z,3.95
2023-02-03T21:02:20.568Z,3.65
2023-02-03T21:05:50.957Z,4.10
2023-02-03T21:09:21.370Z,3.13
2023-02-03T21:12:47.668Z,4.47
2023-02-03T21:16:18.493Z,4.90
2023-02-03T21:19:44.899Z,8.98
2023-02-03T21:23:13.767Z,7.57
2023-02-03T21:26:39.853Z,3.92
2023-02-03T21:30:24.941Z,5.00
2023-02-03T21:33:52.076Z,2.58
2023-02-03T21:37:44.080Z,6.80
2023-02-03T21:41:16.646Z,3.83
2023-02-03T21:44:43.707Z,5.15
2023-02-03T21:48:28.792Z,4.07
2023-02-03T21:51:51.948Z,5.43
2023-02-03T21:55:15.772Z,4.50
2023-02-03T21:58:38.913Z,4.40
2023-02-03T22:02:03.995Z,8.23
2023-02-03T22:05:28.756Z,3.53
2023-02-03T22:08:54.346Z,6.53
2023-02-03T22:12:17.354Z,3.80
2023-02-03T22:15:39.922Z,4.00
2023-02-03T22:19:02.944Z,4.77
2023-02-03T22:22:26.578Z,4.95
2023-02-03T22:25:49.290Z,5.05
2023-02-03T22:29:11.807Z,9.50
2023-02-03T22:32:34.410Z,5.27
2023-02-03T22:35:56.975Z,4.05
2023-02-03T22:39:20.907Z,5.87
2023-02-03T22:42:43.445Z,3.92
2023-02-03T22:46:07.229Z,7.93
2023-02-03T22:49:30.071Z,4.20
2023-02-03T22:52:54.201Z,3.95
2023-02-03T22:56:17.837Z,7.35
2023-02-03T22:59:40.589Z,7.73
2023-02-03T23:03:04.232Z,7.70
2023-02-03T23:06:26.976Z,10.95
2023-02-03T23:09:49.445Z,11.45
2023-02-03T23:13:13.382Z,3.80
2023-02-03T23:16:35.846Z,5.90
2023-02-03T23:20:00.601Z,8.02
2023-02-03T23:23:22.808Z,6.57
2023-02-03T23:26:45.238Z,7.23
2023-02-03T23:30:10.390Z,6.45
2023-02-03T23:33:32.778Z,3.45
2023-02-03T23:36:54.251Z,5.32
2023-02-03T23:40:17.276Z,3.97
2023-02-03T23:43:39.639Z,5.65
2023-02-03T23:47:04.242Z,7.45
2023-02-03T23:50:26.480Z,5.68
2023-02-03T23:53:49.570Z,10.93
2023-02-03T23:57:12.041Z,10.15
